Overview Statistics Trail Chart Weather Telemetry Raw packets
 

This is the latest recevied weather packets stored in our database for station/object N0NB. If no packets are shown the sender has not sent any weather packets the latest 10 day(s).

<< 47 48 49 50 51 52 53 >>
Time Temp. Humidity Pressure Rain* Wind** Luminosity Snow
1787926817 23.33° C 77% 1019.5 hPa 0 mm - 336 W/m² -
1787926217 22.78° C 79% 1019.5 hPa 0 mm - 304 W/m² -
1787925617 21.67° C 82% 1019.4 hPa 0 mm - 273 W/m² -
1787925017 21.11° C 84% 1019.5 hPa 0 mm - 242 W/m² -
1787924417 20.56° C 87% 1019.5 hPa 0 mm - 198 W/m² -
1787923817 20° C 89% 1019.2 hPa 0 mm - 159 W/m² -
1787923217 19.44° C 91% 1019.2 hPa 0 mm - 137 W/m² -
1787922617 18.89° C 93% 1019.2 hPa 0 mm - 119 W/m² -
1787922017 18.33° C 94% 1018.9 hPa 0 mm - 94 W/m² -
1787921417 17.78° C 95% 1019 hPa 0 mm - 63 W/m² -
1787920817 17.78° C 95% 1019.1 hPa 0 mm - 49 W/m² -
1787920217 17.22° C 95% 1019.2 hPa 0 mm - 36 W/m² -
1787919617 17.22° C 95% 1019.2 hPa 0 mm - 15 W/m² -
1787919017 17.22° C 95% 1019.3 hPa 0 mm - 7 W/m² -
1787918417 16.67° C 95% 1019.1 hPa 0 mm - 1 W/m² -
1787917817 16.67° C 95% 1019.2 hPa 0 mm - 0 W/m² -
1787917217 16.67° C 94% 1019.1 hPa 0 mm - 0 W/m² -
1787916617 16.67° C 94% 1019.1 hPa 0 mm - 0 W/m² -
1787916017 17.22° C 94% 1019.3 hPa 0 mm - 0 W/m² -
1787915417 17.22° C 93% 1019.3 hPa 0 mm - 0 W/m² -
1787914817 17.78° C 93% 1019.3 hPa 0 mm - 0 W/m² -
1787914217 17.78° C 92% 1019.1 hPa 0 mm - 0 W/m² -
1787913626 17.78° C 93% 1019 hPa 0 mm - 0 W/m² -
1787913017 17.78° C 93% 1019 hPa 0 mm - 0 W/m² -
1787912417 18.33° C 93% 1018.9 hPa 0 mm - 0 W/m² -

* Rain latest hour (hover to see other rain measurements)
** Current wind speed in m/s (hover to see current wind gust speed)